Time;durP1;ratioP1;P1;durP2;ratioP2;P2;SDS_P1;SDS_P2;PMS_P1;PMS_P2;Temp;Humidity;BMP_temperature;BMP_pressure;BME280_temperature;BME280_humidity;BME280_pressure;Samples;Min_cycle;Max_cycle;Signal;HPM_P1;HPM_P2
2022/06/28 00:01:08;;;;;;;2.17;1.97;;;18.20;98.00;;;;;;5014268;28;20458;-68
2022/06/28 00:03:35;;;;;;;2.20;1.60;;;18.20;98.00;;;;;;5014117;28;20459;-69
2022/06/28 00:06:03;;;;;;;1.93;1.60;;;18.10;98.00;;;;;;5013534;28;20459;-68
2022/06/28 00:08:32;;;;;;;1.57;1.47;;;18.00;98.00;;;;;;5014001;28;20487;-68
2022/06/28 00:11:00;;;;;;;2.07;1.90;;;18.00;98.00;;;;;;5012475;28;20456;-68
2022/06/28 00:13:27;;;;;;;1.70;1.50;;;18.10;98.00;;;;;;5012541;28;20467;-68
2022/06/28 00:18:37;;;;;;;1.77;1.57;;;18.10;98.00;;;;;;5012582;28;20480;-68
2022/06/28 00:21:07;;;;;;;2.17;1.77;;;17.90;98.00;;;;;;5013494;28;20455;-68
2022/06/28 00:23:37;;;;;;;1.90;1.50;;;17.80;98.00;;;;;;5013723;28;20455;-68
2022/06/28 00:26:05;;;;;;;2.33;1.60;;;17.80;98.00;;;;;;5014133;28;20455;-68
2022/06/28 00:28:32;;;;;;;2.63;2.20;;;17.70;98.00;;;;;;5014229;28;20495;-68
2022/06/28 00:31:00;;;;;;;2.50;1.97;;;17.70;98.00;;;;;;5014313;28;20463;-68
2022/06/28 00:33:27;;;;;;;3.60;2.10;;;17.80;98.00;;;;;;5012831;28;20462;-68
2022/06/28 00:35:54;;;;;;;2.17;1.83;;;17.80;98.00;;;;;;5013786;28;20447;-68
2022/06/28 00:38:23;;;;;;;2.70;1.70;;;17.80;98.00;;;;;;5013553;28;20488;-68
2022/06/28 00:40:52;;;;;;;2.33;2.03;;;17.90;98.00;;;;;;5013673;28;20463;-68
2022/06/28 00:43:21;;;;;;;2.97;1.80;;;17.80;98.00;;;;;;5013454;28;20456;-68
2022/06/28 00:45:49;;;;;;;3.53;2.23;;;17.70;98.00;;;;;;5013603;28;20455;-68
2022/06/28 00:48:18;;;;;;;2.17;1.83;;;17.70;98.00;;;;;;5013600;28;20452;-69
2022/06/28 00:50:45;;;;;;;1.50;1.40;;;17.70;98.00;;;;;;5012480;28;20870;-68
2022/06/28 00:53:15;;;;;;;4.93;2.10;;;17.80;98.00;;;;;;5013335;28;20924;-68
2022/06/28 00:55:44;;;;;;;2.97;2.30;;;17.80;98.00;;;;;;5013477;28;20451;-68
2022/06/28 00:58:12;;;;;;;2.47;1.90;;;17.90;98.00;;;;;;5013206;28;20487;-68
2022/06/28 01:00:41;;;;;;;2.33;2.10;;;18.00;98.00;;;;;;5013622;28;20467;-68
2022/06/28 01:03:09;;;;;;;2.57;1.83;;;18.00;98.00;;;;;;5013067;28;20513;-68
2022/06/28 01:05:43;;;;;;;2.50;2.17;;;17.90;98.00;;;;;;5013599;28;20794;-68
2022/06/28 01:08:11;;;;;;;2.70;2.20;;;17.90;98.00;;;;;;5013160;28;21053;-68
2022/06/28 01:10:39;;;;;;;3.17;2.00;;;17.90;98.00;;;;;;5013374;28;20463;-68
2022/06/28 01:13:09;;;;;;;3.20;2.20;;;18.00;98.00;;;;;;5013289;28;20460;-68
2022/06/28 01:15:38;;;;;;;2.63;2.17;;;18.00;98.00;;;;;;5013492;28;20463;-68
2022/06/28 01:18:06;;;;;;;2.13;1.70;;;17.90;98.00;;;;;;5012908;28;20488;-69
2022/06/28 01:20:34;;;;;;;2.03;1.80;;;18.00;98.00;;;;;;5013228;28;20456;-68
2022/06/28 01:23:03;;;;;;;1.63;1.40;;;18.10;98.00;;;;;;5012237;28;20464;-68
2022/06/28 01:25:30;;;;;;;1.60;1.40;;;18.10;98.00;;;;;;5012734;28;20459;-68
2022/06/28 01:27:57;;;;;;;2.30;1.67;;;18.10;98.00;;;;;;5012421;28;20495;-68
2022/06/28 01:30:24;;;;;;;3.93;1.80;;;18.10;98.00;;;;;;5013093;28;20455;-68
2022/06/28 01:32:53;;;;;;;2.07;1.70;;;18.10;98.00;;;;;;5012640;28;20458;-68
2022/06/28 01:35:20;;;;;;;2.03;1.73;;;18.00;98.00;;;;;;5012965;28;20464;-68
2022/06/28 01:37:49;;;;;;;1.87;1.77;;;18.00;98.00;;;;;;5012742;28;20946;-68
2022/06/28 01:40:18;;;;;;;1.70;1.50;;;17.90;98.00;;;;;;5012576;28;20534;-68
2022/06/28 01:42:48;;;;;;;1.70;1.60;;;17.80;98.00;;;;;;5012559;28;20451;-67
2022/06/28 01:45:16;;;;;;;1.77;1.70;;;17.90;98.00;;;;;;5012577;28;20459;-68
2022/06/28 01:47:45;;;;;;;3.30;1.90;;;17.90;98.00;;;;;;5011329;28;20486;-68
2022/06/28 01:50:12;;;;;;;1.90;1.43;;;17.80;98.00;;;;;;5012592;28;20456;-68
2022/06/28 01:52:41;;;;;;;1.63;1.50;;;17.80;98.00;;;;;;5012486;28;20456;-68
2022/06/28 01:55:09;;;;;;;3.10;2.57;;;17.90;98.00;;;;;;5012585;28;20522;-68
2022/06/28 01:57:38;;;;;;;1.77;1.40;;;17.90;98.00;;;;;;5012229;28;20479;-68
2022/06/28 02:00:15;;;;;;;2.03;1.60;;;17.70;98.00;;;;;;5012404;28;20517;-68
2022/06/28 02:02:42;;;;;;;1.60;1.33;;;17.80;98.00;;;;;;5012386;28;20455;-68
2022/06/28 02:05:09;;;;;;;2.13;1.70;;;17.90;98.00;;;;;;5012257;28;20969;-68
2022/06/28 02:07:36;;;;;;;1.40;1.27;;;17.60;98.00;;;;;;5012346;28;20455;-68
2022/06/28 02:10:06;;;;;;;1.60;1.60;;;17.50;98.00;;;;;;5012287;28;20857;-68
2022/06/28 02:12:34;;;;;;;2.00;1.77;;;17.40;98.00;;;;;;5012430;28;20455;-68
2022/06/28 02:15:03;;;;;;;2.30;1.83;;;17.40;98.00;;;;;;5012090;28;20451;-68
2022/06/28 02:17:30;;;;;;;2.23;1.77;;;17.40;98.00;;;;;;5012238;28;20949;-68
2022/06/28 02:19:57;;;;;;;2.00;1.83;;;17.40;98.00;;;;;;5012509;28;20463;-68
2022/06/28 02:22:28;;;;;;;2.13;1.80;;;17.50;98.00;;;;;;5012123;28;20467;-68
2022/06/28 02:24:55;;;;;;;1.87;1.73;;;17.40;98.00;;;;;;5012492;28;20467;-68
2022/06/28 02:27:22;;;;;;;1.80;1.70;;;17.30;98.00;;;;;;5012673;28;20470;-68
2022/06/28 02:29:49;;;;;;;1.70;1.50;;;17.30;98.00;;;;;;5012503;28;20455;-68
2022/06/28 02:32:18;;;;;;;1.30;1.27;;;17.20;98.00;;;;;;5012295;28;20981;-68
2022/06/28 02:40:24;;;;;;;2.43;1.73;;;17.10;98.00;;;;;;5016018;28;20925;-68
2022/06/28 02:42:52;;;;;;;2.40;1.80;;;17.00;98.00;;;;;;5015962;28;20467;-68
2022/06/28 02:45:20;;;;;;;1.70;1.60;;;16.90;98.00;;;;;;5016007;28;20447;-68
2022/06/28 02:47:49;;;;;;;2.10;1.30;;;17.00;98.00;;;;;;5015737;28;20459;-68
2022/06/28 02:50:16;;;;;;;1.97;1.47;;;17.10;98.00;;;;;;5015811;28;20456;-68
2022/06/28 02:52:43;;;;;;;1.50;1.30;;;17.00;98.00;;;;;;5015794;28;20451;-68
2022/06/28 02:55:11;;;;;;;1.43;1.37;;;17.00;98.00;;;;;;5015723;28;20451;-68
2022/06/28 02:57:39;;;;;;;1.77;1.50;;;17.00;98.00;;;;;;5015518;28;20466;-68
2022/06/28 03:00:09;;;;;;;1.87;1.40;;;17.00;98.00;;;;;;5015539;28;20509;-68
2022/06/28 03:02:37;;;;;;;1.80;1.50;;;16.90;98.00;;;;;;5015592;28;20945;-68
2022/06/28 03:05:07;;;;;;;1.70;1.37;;;16.80;98.00;;;;;;5015511;28;20839;-68
2022/06/28 03:07:34;;;;;;;1.80;1.40;;;16.70;98.00;;;;;;5015494;28;20464;-68
2022/06/28 03:10:02;;;;;;;2.97;1.83;;;16.70;98.00;;;;;;5015629;28;20451;-68
2022/06/28 03:12:29;;;;;;;1.60;1.47;;;16.80;98.00;;;;;;5015375;28;20943;-68
2022/06/28 03:14:56;;;;;;;1.83;1.40;;;16.80;98.00;;;;;;5015552;28;20463;-68
2022/06/28 03:17:23;;;;;;;1.33;1.30;;;16.70;98.00;;;;;;5015541;28;20590;-67
2022/06/28 03:19:51;;;;;;;1.93;1.50;;;16.70;98.00;;;;;;5015439;28;20491;-68
2022/06/28 03:22:19;;;;;;;1.30;1.20;;;16.80;98.00;;;;;;5015325;28;20456;-68
2022/06/28 03:24:48;;;;;;;1.33;1.20;;;16.80;98.00;;;;;;5015613;28;20467;-68
2022/06/28 03:27:15;;;;;;;2.07;1.77;;;16.80;98.00;;;;;;5015394;28;20514;-68
2022/06/28 03:29:42;;;;;;;1.60;1.47;;;16.90;98.00;;;;;;5015457;28;20459;-68
2022/06/28 03:32:10;;;;;;;1.93;1.53;;;16.80;98.00;;;;;;5015081;28;20466;-68
2022/06/28 03:34:37;;;;;;;1.53;1.37;;;16.80;98.00;;;;;;5015273;28;20474;-68
2022/06/28 03:37:05;;;;;;;1.90;1.50;;;16.80;98.00;;;;;;5014814;28;20450;-68
2022/06/28 03:39:35;;;;;;;1.50;1.50;;;16.90;98.00;;;;;;5014989;28;21141;-68
2022/06/28 03:42:03;;;;;;;1.20;1.13;;;16.90;98.00;;;;;;5014479;28;20471;-68
2022/06/28 03:44:31;;;;;;;1.53;1.43;;;16.90;98.00;;;;;;5015084;28;20466;-68
2022/06/28 03:46:58;;;;;;;1.20;1.17;;;16.90;98.00;;;;;;5014931;28;20460;-68
2022/06/28 03:49:25;;;;;;;1.80;1.50;;;17.00;98.00;;;;;;5014265;28;20551;-68
2022/06/28 03:51:52;;;;;;;2.00;1.70;;;17.10;98.00;;;;;;5014619;28;20456;-68
2022/06/28 03:54:19;;;;;;;1.90;1.70;;;17.20;98.00;;;;;;5014724;28;20551;-68
2022/06/28 03:56:48;;;;;;;2.70;1.70;;;17.30;98.00;;;;;;5013257;28;20824;-68
2022/06/28 03:59:15;;;;;;;3.63;1.73;;;17.30;98.00;;;;;;5014552;28;20494;-68
2022/06/28 04:01:42;;;;;;;3.10;1.70;;;17.50;98.00;;;;;;5014386;28;20459;-68
2022/06/28 04:04:09;;;;;;;3.13;2.30;;;17.70;98.00;;;;;;5014240;28;20467;-68
2022/06/28 04:06:37;;;;;;;2.17;1.43;;;17.60;98.00;;;;;;5014564;28;20535;-68
2022/06/28 04:09:04;;;;;;;1.60;1.40;;;17.50;98.00;;;;;;5014378;28;20452;-68
2022/06/28 04:11:31;;;;;;;2.60;2.20;;;17.40;98.00;;;;;;5014302;28;20534;-68
2022/06/28 04:14:00;;;;;;;1.83;1.67;;;17.40;98.00;;;;;;5014442;28;20463;-68
2022/06/28 04:16:30;;;;;;;2.07;1.77;;;17.40;98.00;;;;;;5014231;28;20475;-68
2022/06/28 04:18:57;;;;;;;3.13;1.97;;;17.50;98.00;;;;;;5014320;28;20866;-68
2022/06/28 04:21:24;;;;;;;4.00;2.30;;;17.50;98.00;;;;;;5014025;28;20460;-68
2022/06/28 04:23:52;;;;;;;2.33;2.10;;;17.70;98.00;;;;;;5014415;28;20550;-68
2022/06/28 04:26:19;;;;;;;3.83;2.33;;;17.60;98.00;;;;;;5014159;28;20459;-68
2022/06/28 04:28:46;;;;;;;3.10;2.63;;;17.60;98.00;;;;;;5014165;28;20459;-67
2022/06/28 04:31:15;;;;;;;2.40;2.23;;;17.70;98.00;;;;;;5014283;28;21080;-68
2022/06/28 04:33:42;;;;;;;2.37;1.80;;;17.80;98.00;;;;;;5014095;28;20456;-68
2022/06/28 04:36:09;;;;;;;2.50;1.80;;;17.90;98.00;;;;;;5013708;28;20451;-67
2022/06/28 04:38:39;;;;;;;2.07;1.73;;;17.70;98.00;;;;;;5013698;28;20479;-68
2022/06/28 04:41:08;;;;;;;2.70;2.20;;;17.70;98.00;;;;;;5012606;28;20542;-68
2022/06/28 04:43:35;;;;;;;3.03;2.43;;;17.80;98.00;;;;;;5013625;28;20973;-67
2022/06/28 04:46:02;;;;;;;3.10;2.10;;;18.00;98.00;;;;;;5013865;28;20961;-68
2022/06/28 04:48:31;;;;;;;3.17;2.03;;;18.10;98.00;;;;;;5013639;28;20466;-68
2022/06/28 04:51:10;;;;;;;2.87;1.97;;;18.10;98.00;;;;;;5013540;28;20462;-68
2022/06/28 04:53:39;;;;;;;4.00;2.37;;;18.10;98.00;;;;;;5012667;28;20470;-68
2022/06/28 04:56:07;;;;;;;2.13;2.00;;;18.10;98.00;;;;;;5013416;28;20455;-68
2022/06/28 04:58:35;;;;;;;2.80;1.90;;;18.10;98.00;;;;;;5013441;28;20859;-68
2022/06/28 05:01:02;;;;;;;3.67;1.97;;;18.10;98.00;;;;;;5013018;28;20558;-68
2022/06/28 05:03:31;;;;;;;2.57;2.10;;;18.00;98.00;;;;;;5012763;28;20476;-68
2022/06/28 05:05:59;;;;;;;3.63;2.10;;;18.10;98.00;;;;;;5013417;28;20840;-67
2022/06/28 05:08:26;;;;;;;2.57;2.07;;;18.20;98.00;;;;;;5013349;28;20490;-68
2022/06/28 05:10:53;;;;;;;2.00;1.70;;;18.40;98.00;;;;;;5013068;28;20804;-67
2022/06/28 05:13:20;;;;;;;1.90;1.83;;;18.40;98.00;;;;;;5013229;28;20453;-68
2022/06/28 05:15:47;;;;;;;3.43;2.00;;;18.30;98.00;;;;;;5013154;28;20494;-68
2022/06/28 05:18:17;;;;;;;2.33;1.70;;;18.40;98.00;;;;;;5013110;28;20533;-68
2022/06/28 05:20:46;;;;;;;3.47;2.27;;;18.40;98.00;;;;;;5013069;28;20467;-68
2022/06/28 05:23:13;;;;;;;3.50;2.47;;;18.50;98.00;;;;;;5012894;28;20457;-67
2022/06/28 05:25:40;;;;;;;3.80;2.10;;;18.60;98.00;;;;;;5013084;28;20451;-68
2022/06/28 05:28:08;;;;;;;3.00;2.10;;;18.70;98.00;;;;;;5012934;28;20459;-68
2022/06/28 05:30:35;;;;;;;2.63;2.03;;;18.60;98.00;;;;;;5013103;28;20455;-68
2022/06/28 05:33:03;;;;;;;1.80;1.73;;;18.60;98.00;;;;;;5013209;28;20828;-68
2022/06/28 05:35:30;;;;;;;3.00;2.37;;;18.60;98.00;;;;;;5012989;28;20456;-68
2022/06/28 05:38:00;;;;;;;2.53;2.03;;;18.60;98.00;;;;;;5012807;28;20455;-68
2022/06/28 05:40:27;;;;;;;2.10;1.90;;;18.60;98.00;;;;;;5012850;28;20994;-67
2022/06/28 05:42:54;;;;;;;3.63;2.20;;;18.70;98.00;;;;;;5012648;28;20459;-68
2022/06/28 05:45:22;;;;;;;2.10;1.90;;;18.80;98.00;;;;;;5012658;28;20463;-68
2022/06/28 05:47:49;;;;;;;3.80;2.20;;;18.80;98.00;;;;;;5012677;28;20490;-68
2022/06/28 05:50:16;;;;;;;2.23;2.10;;;18.90;98.00;;;;;;5012524;28;20455;-68
2022/06/28 05:52:43;;;;;;;2.83;2.00;;;18.90;98.00;;;;;;5012601;28;20451;-68
2022/06/28 05:55:18;;;;;;;3.10;2.07;;;19.00;98.00;;;;;;5012517;28;20471;-68
2022/06/28 05:57:45;;;;;;;2.83;2.10;;;19.00;98.00;;;;;;5012347;28;20459;-68
2022/06/28 06:00:13;;;;;;;2.53;1.93;;;19.00;98.00;;;;;;5012653;28;20528;-68
2022/06/28 06:02:40;;;;;;;4.77;2.47;;;19.10;98.00;;;;;;5012144;28;20957;-68
2022/06/28 06:05:08;;;;;;;2.60;2.03;;;19.10;98.00;;;;;;5012441;28;20546;-68
2022/06/28 06:07:35;;;;;;;3.13;2.07;;;19.20;98.00;;;;;;5012373;28;20506;-67
2022/06/28 06:10:10;;;;;;;2.73;2.20;;;19.30;98.00;;;;;;5012191;28;20938;-68
2022/06/28 06:12:38;;;;;;;3.80;2.27;;;19.30;98.00;;;;;;5011930;28;20454;-68
2022/06/28 06:15:07;;;;;;;3.90;2.37;;;19.20;98.00;;;;;;5012365;28;20459;-69
2022/06/28 06:17:34;;;;;;;3.37;2.13;;;19.10;98.00;;;;;;5012346;28;20862;-68
2022/06/28 06:20:02;;;;;;;3.40;2.50;;;19.00;98.00;;;;;;5012195;28;20484;-69
2022/06/28 06:22:29;;;;;;;2.37;2.00;;;18.90;98.00;;;;;;5012083;28;20534;-69
2022/06/28 06:24:57;;;;;;;2.90;2.10;;;18.80;98.00;;;;;;5012264;28;20811;-69
2022/06/28 06:27:25;;;;;;;4.00;2.70;;;18.80;98.00;;;;;;5012170;28;20451;-69
2022/06/28 06:29:54;;;;;;;4.30;2.50;;;18.90;98.00;;;;;;5011053;28;20459;-69
2022/06/28 06:32:21;;;;;;;2.07;1.87;;;19.00;98.00;;;;;;5012268;28;20455;-68
2022/06/28 06:34:49;;;;;;;2.60;2.20;;;19.00;98.00;;;;;;5011751;28;20481;-69
2022/06/28 06:37:16;;;;;;;4.70;2.70;;;19.10;98.00;;;;;;5010794;28;20470;-68
2022/06/28 06:39:43;;;;;;;2.77;2.03;;;19.10;98.00;;;;;;5011585;28;20491;-68
2022/06/28 06:42:10;;;;;;;3.83;2.37;;;19.20;98.00;;;;;;5011879;28;20996;-69
2022/06/28 06:44:37;;;;;;;3.90;2.40;;;19.40;98.00;;;;;;5011824;28;20470;-68
2022/06/28 06:47:06;;;;;;;2.60;1.93;;;19.30;98.00;;;;;;5011416;28;20486;-68
2022/06/28 06:49:33;;;;;;;3.53;2.37;;;19.30;98.00;;;;;;5011692;28;20456;-68
2022/06/28 06:52:01;;;;;;;3.70;2.37;;;19.50;98.00;;;;;;5011659;28;20455;-68
2022/06/28 06:54:28;;;;;;;4.10;2.47;;;19.70;98.00;;;;;;5011540;28;20819;-69
2022/06/28 06:56:55;;;;;;;3.73;2.07;;;19.90;98.00;;;;;;5011623;28;20482;-68
2022/06/28 06:59:22;;;;;;;4.43;2.63;;;19.90;98.00;;;;;;5011609;28;20475;-68
2022/06/28 07:01:49;;;;;;;4.00;2.70;;;19.90;98.00;;;;;;5011327;28;21000;-68
2022/06/28 07:04:17;;;;;;;2.50;1.90;;;19.80;98.00;;;;;;5011420;28;21132;-68
2022/06/28 07:06:44;;;;;;;2.90;2.33;;;19.70;98.00;;;;;;5011740;28;20451;-69
2022/06/28 07:09:12;;;;;;;3.07;2.20;;;19.80;98.00;;;;;;5011803;28;20551;-68
2022/06/28 07:11:39;;;;;;;2.80;2.10;;;20.00;98.00;;;;;;5011523;28;20451;-69
2022/06/28 07:14:06;;;;;;;2.83;2.00;;;20.20;98.00;;;;;;5011827;28;20463;-68
2022/06/28 07:16:33;;;;;;;3.10;2.60;;;20.40;98.00;;;;;;5011757;28;20505;-70
2022/06/28 07:19:00;;;;;;;2.50;2.07;;;20.40;98.00;;;;;;5004893;28;20969;-68
2022/06/28 07:21:29;;;;;;;4.80;2.77;;;20.50;98.00;;;;;;4993284;28;20488;-68
2022/06/28 07:23:56;;;;;;;5.33;2.70;;;20.60;98.00;;;;;;4989062;28;20479;-68
2022/06/28 07:26:23;;;;;;;2.97;2.37;;;20.70;98.00;;;;;;4992014;28;20800;-68
2022/06/28 07:28:50;;;;;;;3.63;2.37;;;20.80;98.00;;;;;;4993023;28;20465;-68
2022/06/28 07:31:17;;;;;;;3.43;2.50;;;20.70;98.00;;;;;;4992861;28;20598;-67
2022/06/28 07:33:45;;;;;;;4.20;2.20;;;20.50;98.00;;;;;;4992615;28;20527;-72
2022/06/28 07:36:12;;;;;;;3.10;1.97;;;20.40;98.00;;;;;;4992442;28;20459;-68
2022/06/28 07:38:40;;;;;;;2.03;1.73;;;20.30;98.00;;;;;;4992737;28;20865;-72
2022/06/28 07:41:07;;;;;;;3.43;2.10;;;20.40;98.00;;;;;;4992379;28;20525;-73
2022/06/28 07:43:34;;;;;;;2.50;1.83;;;20.60;98.00;;;;;;4992300;28;20477;-73
2022/06/28 07:46:02;;;;;;;4.00;2.80;;;20.90;98.00;;;;;;4992195;28;20459;-73
2022/06/28 07:48:29;;;;;;;3.57;2.20;;;21.10;98.00;;;;;;4992294;28;20468;-73
2022/06/28 07:53:41;;;;;;;2.70;2.07;;;20.90;98.00;;;;;;4992595;28;20959;-73
2022/06/28 07:56:11;;;;;;;3.30;2.10;;;20.70;98.00;;;;;;4992055;28;20465;-71
2022/06/28 07:58:39;;;;;;;1.70;1.50;;;20.90;98.00;;;;;;4992400;28;20471;-71
2022/06/28 08:01:08;;;;;;;3.97;2.50;;;21.10;98.00;;;;;;4992183;28;20503;-71
2022/06/28 08:03:35;;;;;;;3.87;2.30;;;21.30;98.00;;;;;;4991823;28;20464;-70
2022/06/28 08:06:02;;;;;;;2.70;1.97;;;21.20;98.00;;;;;;4992129;28;20958;-74
2022/06/28 08:08:30;;;;;;;2.37;1.83;;;21.20;98.00;;;;;;4991918;28;20461;-74
2022/06/28 08:10:58;;;;;;;2.27;1.70;;;21.40;98.00;;;;;;4992010;28;20463;-73
2022/06/28 08:13:26;;;;;;;3.07;2.40;;;21.60;98.00;;;;;;4991811;28;20461;-72
2022/06/28 08:15:55;;;;;;;4.77;2.13;;;21.80;98.00;;;;;;4991781;28;20488;-68
2022/06/28 08:18:22;;;;;;;3.00;2.30;;;22.00;98.00;;;;;;4991995;28;20846;-67
2022/06/28 08:20:49;;;;;;;3.70;2.60;;;21.90;98.00;;;;;;4991693;28;20874;-68
2022/06/28 08:23:16;;;;;;;3.90;2.50;;;21.90;98.00;;;;;;4991692;28;20472;-67
2022/06/28 08:25:43;;;;;;;4.23;2.60;;;21.90;98.00;;;;;;4991568;28;20951;-68
2022/06/28 08:28:13;;;;;;;3.10;2.33;;;21.90;98.00;;;;;;4991443;28;20552;-67
2022/06/28 08:30:41;;;;;;;2.60;2.23;;;22.10;98.00;;;;;;4992023;28;20460;-67
2022/06/28 08:33:09;;;;;;;4.43;2.33;;;22.20;98.00;;;;;;4994317;28;20460;-67
2022/06/28 08:35:37;;;;;;;2.40;2.13;;;22.40;98.00;;;;;;4995462;28;20456;-67
2022/06/28 08:38:06;;;;;;;2.80;2.20;;;22.60;98.00;;;;;;4991165;28;20973;-67
2022/06/28 08:40:34;;;;;;;3.73;2.00;;;22.80;98.00;;;;;;4991493;28;20492;-68
2022/06/28 08:43:02;;;;;;;3.40;2.47;;;22.90;98.00;;;;;;4991156;28;20460;-68
2022/06/28 08:45:31;;;;;;;5.77;2.57;;;22.90;98.00;;;;;;4991624;28;20465;-68
2022/06/28 08:48:02;;;;;;;2.70;2.03;;;22.80;98.00;;;;;;4993586;28;20472;-68
2022/06/28 08:50:34;;;;;;;2.57;2.03;;;22.60;98.00;;;;;;4989963;28;20464;-68
2022/06/28 08:53:04;;;;;;;2.53;2.07;;;22.40;98.00;;;;;;4990909;28;20476;-67
2022/06/28 08:55:34;;;;;;;3.33;2.37;;;22.40;98.00;;;;;;4991239;28;20476;-67
2022/06/28 08:58:02;;;;;;;2.80;2.00;;;22.40;98.00;;;;;;4990867;28;20974;-68
2022/06/28 09:00:30;;;;;;;2.63;2.00;;;22.50;98.00;;;;;;4990758;28;20504;-68
2022/06/28 09:02:58;;;;;;;3.30;2.30;;;22.70;98.00;;;;;;4990531;28;21541;-68
2022/06/28 09:05:26;;;;;;;2.97;2.23;;;22.90;98.00;;;;;;4990905;28;20452;-68
2022/06/28 09:07:55;;;;;;;3.83;2.30;;;23.20;98.00;;;;;;4990777;28;20457;-68
2022/06/28 09:10:23;;;;;;;2.97;2.20;;;23.40;98.00;;;;;;4990835;28;22152;-68
2022/06/28 09:12:54;;;;;;;2.57;2.10;;;23.50;98.00;;;;;;4990822;28;20499;-68
2022/06/28 09:15:23;;;;;;;4.13;2.43;;;23.50;98.00;;;;;;4990849;28;20479;-68
2022/06/28 09:17:54;;;;;;;2.10;1.80;;;23.40;98.00;;;;;;4990683;28;20460;-69
2022/06/28 09:20:35;;;;;;;2.70;2.10;;;23.40;98.00;;;;;;4991093;28;21097;-68
2022/06/28 09:23:02;;;;;;;2.43;2.00;;;23.30;98.00;;;;;;4990815;28;20543;-66
2022/06/28 09:25:32;;;;;;;2.53;1.80;;;23.30;98.00;;;;;;4990554;28;20477;-66
2022/06/28 09:28:01;;;;;;;3.10;2.33;;;23.30;98.00;;;;;;4990063;28;20824;-66
2022/06/28 09:30:31;;;;;;;3.43;1.97;;;23.10;98.00;;;;;;4990268;28;20453;-66
2022/06/28 09:33:04;;;;;;;2.60;2.03;;;22.90;98.00;;;;;;4989941;28;20519;-67
2022/06/28 09:35:31;;;;;;;2.30;1.80;;;23.00;98.00;;;;;;4990265;28;20461;-67
2022/06/28 09:37:58;;;;;;;2.53;2.00;;;23.10;98.00;;;;;;4990251;28;20816;-66
2022/06/28 09:40:28;;;;;;;3.57;2.50;;;23.30;98.00;;;;;;4990093;28;20500;-66
2022/06/28 09:43:12;;;;;;;2.90;2.07;;;23.30;98.00;;;;;;4994573;28;20518;-66
2022/06/28 09:45:40;;;;;;;3.47;2.30;;;23.30;98.00;;;;;;5011004;28;20471;-68
2022/06/28 09:48:11;;;;;;;2.37;2.13;;;23.20;98.00;;;;;;5011252;28;20673;-68
2022/06/28 09:50:40;;;;;;;2.83;2.07;;;23.20;98.00;;;;;;5011909;28;20966;-68
2022/06/28 09:53:08;;;;;;;3.37;2.37;;;23.20;98.00;;;;;;5010556;28;20459;-68
2022/06/28 09:55:35;;;;;;;3.20;2.20;;;23.00;98.00;;;;;;5011956;28;20482;-69
2022/06/28 09:58:03;;;;;;;2.30;2.07;;;22.90;98.00;;;;;;5011969;28;20482;-68
2022/06/28 10:00:34;;;;;;;3.93;2.20;;;22.70;98.00;;;;;;5011841;28;20929;-68
2022/06/28 10:03:01;;;;;;;3.67;2.17;;;22.70;98.00;;;;;;5011617;28;20475;-68
2022/06/28 10:05:29;;;;;;;2.93;2.03;;;22.80;98.00;;;;;;5011626;28;20448;-68
2022/06/28 10:07:57;;;;;;;3.90;2.60;;;22.90;98.00;;;;;;5011597;28;20463;-68
2022/06/28 10:10:24;;;;;;;4.77;2.47;;;23.00;98.00;;;;;;5011714;28;20517;-68
2022/06/28 10:15:42;;;;;;;2.50;2.00;;;23.30;98.00;;;;;;5011878;28;20526;-68
2022/06/28 10:18:13;;;;;;;3.30;2.20;;;23.40;98.00;;;;;;5011680;28;20513;-68
2022/06/28 10:20:43;;;;;;;3.00;2.30;;;23.20;98.00;;;;;;5011957;28;21025;-68
2022/06/28 10:23:29;;;;;;;2.90;2.17;;;23.10;98.00;;;;;;5012506;28;20460;-68
2022/06/28 10:26:06;;;;;;;2.20;1.80;;;23.20;98.00;;;;;;5012306;28;20499;-68
2022/06/28 10:28:38;;;;;;;2.00;1.77;;;23.40;98.00;;;;;;5012183;28;20562;-68
2022/06/28 10:31:34;;;;;;;3.23;2.13;;;23.50;98.00;;;;;;5012208;28;20494;-68
2022/06/28 10:34:03;;;;;;;2.90;2.27;;;23.70;98.00;;;;;;5012169;28;20460;-68
2022/06/28 10:36:41;;;;;;;3.47;2.47;;;23.90;98.00;;;;;;5012306;28;20965;-68
2022/06/28 10:39:15;;;;;;;2.50;2.10;;;24.20;98.00;;;;;;5012130;28;20522;-68
2022/06/28 10:41:44;;;;;;;3.60;2.20;;;24.50;98.00;;;;;;5012087;28;20578;-68
2022/06/28 10:44:13;;;;;;;3.30;2.43;;;24.60;98.00;;;;;;5011701;28;20463;-68
2022/06/28 10:46:42;;;;;;;2.73;2.17;;;24.70;98.00;;;;;;5012100;28;20554;-68
2022/06/28 10:49:11;;;;;;;2.67;2.43;;;24.80;98.00;;;;;;5010437;28;20518;-68
2022/06/28 10:52:16;;;;;;;2.70;2.10;;;25.10;98.00;;;;;;5011708;28;20460;-68
2022/06/28 10:55:23;;;;;;;2.67;2.10;;;25.30;98.00;;;;;;4998509;28;20739;-68
2022/06/28 10:58:09;;;;;;;2.53;1.83;;;25.60;98.00;;;;;;5011632;28;20467;-68
2022/06/28 11:00:51;;;;;;;2.53;1.90;;;25.60;98.00;;;;;;5013091;28;20570;-68
2022/06/28 11:03:19;;;;;;;2.90;2.17;;;25.40;98.00;;;;;;5015238;28;20499;-69
2022/06/28 11:05:49;;;;;;;2.37;1.97;;;25.10;98.00;;;;;;5015078;28;20447;-68
2022/06/28 11:08:49;;;;;;;2.20;2.00;;;25.10;98.00;;;;;;5015373;28;20467;-68
2022/06/28 11:11:17;;;;;;;3.00;2.30;;;25.00;98.00;;;;;;5015619;28;21005;-68
2022/06/28 11:13:45;;;;;;;2.10;1.90;;;25.00;98.00;;;;;;5015387;28;20473;-68
2022/06/28 11:16:47;;;;;;;2.43;1.87;;;25.10;98.00;;;;;;5015349;28;20470;-68
2022/06/28 11:19:15;;;;;;;2.33;1.90;;;25.40;98.00;;;;;;5015397;28;20532;-68
2022/06/28 11:21:44;;;;;;;2.20;1.60;;;25.40;98.00;;;;;;5015458;28;20482;-68
2022/06/28 11:24:11;;;;;;;2.17;1.93;;;25.60;98.00;;;;;;5015239;28;20447;-68
2022/06/28 11:29:25;;;;;;;2.40;2.00;;;26.00;98.00;;;;;;5015277;28;21061;-67
2022/06/28 11:31:52;;;;;;;1.80;1.60;;;26.20;98.00;;;;;;5015427;28;20456;-68
2022/06/28 11:34:24;;;;;;;2.23;1.87;;;26.40;98.00;;;;;;5015113;28;20448;-69
2022/06/28 11:36:57;;;;;;;2.50;1.80;;;26.50;98.00;;;;;;5015297;28;20466;-69
2022/06/28 11:39:25;;;;;;;2.53;1.90;;;26.60;97.40;;;;;;5014897;28;20471;-68
2022/06/28 11:41:55;;;;;;;2.80;1.83;;;26.40;97.20;;;;;;5014486;28;20936;-68
2022/06/28 11:44:23;;;;;;;2.00;1.70;;;26.20;98.00;;;;;;5014690;28;20463;-68
2022/06/28 11:46:53;;;;;;;2.20;1.60;;;26.00;97.80;;;;;;5014901;28;20888;-68
2022/06/28 11:49:31;;;;;;;1.87;1.60;;;25.80;98.00;;;;;;5014476;28;20498;-68
2022/06/28 11:51:58;;;;;;;2.07;1.80;;;25.60;98.00;;;;;;5014270;28;20451;-68
2022/06/28 11:54:26;;;;;;;1.63;1.60;;;25.60;98.00;;;;;;5013997;28;20478;-67
2022/06/28 11:56:54;;;;;;;1.90;1.60;;;25.60;98.00;;;;;;5014062;28;20490;-68
2022/06/28 11:59:42;;;;;;;3.00;1.80;;;25.60;98.00;;;;;;5014234;28;20460;-68
2022/06/28 12:02:09;;;;;;;1.50;1.50;;;25.60;98.00;;;;;;5013797;28;20483;-68
2022/06/28 12:04:41;;;;;;;2.03;1.77;;;25.50;98.00;;;;;;5013725;28;20459;-67
2022/06/28 12:07:09;;;;;;;1.70;1.63;;;25.60;97.10;;;;;;5013973;28;20494;-68
2022/06/28 12:09:46;;;;;;;1.83;1.60;;;25.60;97.60;;;;;;5013728;28;20463;-69
2022/06/28 12:12:15;;;;;;;2.13;1.70;;;25.60;97.10;;;;;;5012877;28;20456;-68
2022/06/28 12:14:42;;;;;;;1.57;1.47;;;25.50;96.30;;;;;;5013610;28;20517;-69
2022/06/28 12:17:10;;;;;;;1.83;1.53;;;25.50;97.50;;;;;;5013559;28;20467;-69
2022/06/28 12:19:39;;;;;;;2.37;1.90;;;25.70;97.60;;;;;;5013336;28;20521;-67
2022/06/28 12:22:08;;;;;;;2.07;1.70;;;25.90;97.80;;;;;;5013392;28;20520;-67
2022/06/28 12:24:39;;;;;;;3.33;1.67;;;26.10;97.50;;;;;;5013339;28;20942;-67
2022/06/28 12:27:07;;;;;;;2.03;1.60;;;26.20;94.80;;;;;;5013257;28;20460;-67
2022/06/28 12:29:36;;;;;;;1.77;1.60;;;26.00;94.50;;;;;;5013401;28;20842;-67
2022/06/28 12:32:03;;;;;;;3.40;2.57;;;25.80;95.40;;;;;;5013278;28;20452;-67
2022/06/28 12:34:30;;;;;;;2.73;1.93;;;25.80;94.70;;;;;;5013374;28;20455;-67
2022/06/28 12:36:58;;;;;;;1.87;1.70;;;25.80;96.10;;;;;;5013187;28;20455;-67
2022/06/28 12:39:25;;;;;;;2.53;1.90;;;25.80;97.40;;;;;;5013138;28;20452;-67
2022/06/28 12:41:52;;;;;;;2.90;1.90;;;25.80;97.50;;;;;;5013207;28;20479;-67
2022/06/28 12:44:20;;;;;;;2.10;1.90;;;25.70;95.70;;;;;;5013101;28;20452;-67
2022/06/28 12:46:51;;;;;;;5.40;2.00;;;25.90;96.20;;;;;;5013013;28;20467;-67
2022/06/28 12:49:18;;;;;;;2.20;2.03;;;25.90;97.20;;;;;;5012765;28;20551;-68
2022/06/28 12:51:46;;;;;;;2.10;1.70;;;26.00;96.00;;;;;;5012901;28;20464;-67
2022/06/28 12:54:13;;;;;;;2.63;1.90;;;26.10;97.30;;;;;;5011245;28;20463;-67
2022/06/28 12:56:41;;;;;;;1.80;1.70;;;26.20;97.00;;;;;;5012718;28;20471;-67
2022/06/28 12:59:08;;;;;;;1.60;1.60;;;26.30;96.00;;;;;;5011865;28;20486;-67
2022/06/28 13:01:36;;;;;;;1.70;1.60;;;26.50;93.50;;;;;;5013218;28;20483;-67
2022/06/28 13:04:05;;;;;;;2.07;1.70;;;26.50;93.00;;;;;;5013122;28;20473;-67
2022/06/28 13:06:32;;;;;;;2.03;1.80;;;26.60;94.60;;;;;;5013164;28;20464;-69
2022/06/28 13:08:59;;;;;;;2.23;1.70;;;26.70;93.20;;;;;;5013136;28;20459;-69
2022/06/28 13:11:26;;;;;;;1.90;1.70;;;26.80;94.50;;;;;;5013059;28;20510;-69
2022/06/28 13:13:54;;;;;;;1.90;1.80;;;27.20;93.10;;;;;;5012068;28;20452;-69